createdAt,value
2017-05-28T00:00:38.282Z,0
2017-05-28T00:01:49.293Z,0
2017-05-28T00:03:00.364Z,0
2017-05-28T00:04:11.580Z,0
2017-05-28T00:05:22.607Z,0
2017-05-28T00:06:33.655Z,0
2017-05-28T00:07:44.681Z,0
2017-05-28T00:08:55.743Z,0
2017-05-28T00:10:07.163Z,0
2017-05-28T00:11:18.193Z,0
2017-05-28T00:12:29.264Z,0
2017-05-28T00:13:40.339Z,0
2017-05-28T00:14:51.395Z,0
2017-05-28T00:16:02.609Z,0
2017-05-28T00:17:13.630Z,0
2017-05-28T00:18:24.654Z,0
2017-05-28T00:19:35.674Z,0
2017-05-28T00:20:46.689Z,0
2017-05-28T00:21:57.711Z,0
2017-05-28T00:23:08.747Z,0
2017-05-28T00:24:19.756Z,0
2017-05-28T00:25:30.831Z,0
2017-05-28T00:26:42.048Z,0
2017-05-28T00:27:53.058Z,0
2017-05-28T00:29:04.071Z,0
2017-05-28T00:30:15.092Z,0
2017-05-28T00:31:26.153Z,0
2017-05-28T00:32:37.173Z,0
2017-05-28T00:33:48.193Z,0
2017-05-28T00:34:59.223Z,0
2017-05-28T00:36:10.239Z,0
2017-05-28T00:37:21.312Z,0
2017-05-28T00:38:32.322Z,0
2017-05-28T00:39:43.341Z,0
2017-05-28T00:40:54.365Z,0
2017-05-28T00:42:05.587Z,0
2017-05-28T00:43:16.655Z,0
2017-05-28T00:44:27.677Z,0
2017-05-28T00:45:38.703Z,0
2017-05-28T00:46:49.924Z,0
2017-05-28T00:48:00.933Z,0
2017-05-28T00:49:11.989Z,0
2017-05-28T00:50:23.018Z,0
2017-05-28T00:51:34.017Z,0
2017-05-28T00:52:45.035Z,0
2017-05-28T00:53:56.041Z,0
2017-05-28T00:55:07.309Z,0
2017-05-28T00:56:18.524Z,0
2017-05-28T00:57:29.543Z,0
2017-05-28T00:58:40.773Z,0
2017-05-28T00:59:51.800Z,0
2017-05-28T01:01:02.811Z,0
2017-05-28T01:02:13.825Z,0
2017-05-28T01:03:25.044Z,0
2017-05-28T01:04:36.049Z,0
2017-05-28T01:05:47.106Z,0
2017-05-28T01:06:58.115Z,0
2017-05-28T01:08:09.124Z,0
2017-05-28T01:09:20.145Z,0
2017-05-28T01:10:31.163Z,0
2017-05-28T01:11:42.428Z,0
2017-05-28T01:12:53.650Z,0
2017-05-28T01:14:04.738Z,0
2017-05-28T01:15:15.754Z,0
2017-05-28T01:16:26.764Z,0
2017-05-28T01:17:37.842Z,0
2017-05-28T01:18:48.868Z,0
2017-05-28T01:19:59.896Z,0
2017-05-28T01:21:11.115Z,0
2017-05-28T01:22:22.128Z,0
2017-05-28T01:23:33.188Z,0
2017-05-28T01:24:44.203Z,0
2017-05-28T01:25:55.211Z,0
2017-05-28T01:27:06.432Z,0
2017-05-28T01:28:17.461Z,0
2017-05-28T01:29:28.511Z,0
2017-05-28T01:30:39.524Z,0
2017-05-28T01:31:50.544Z,0
2017-05-28T01:33:01.554Z,0
2017-05-28T01:34:12.596Z,0
2017-05-28T01:35:23.656Z,0
2017-05-28T01:36:34.930Z,0
2017-05-28T01:37:46.146Z,0
2017-05-28T01:38:57.157Z,0
2017-05-28T01:40:08.170Z,0
2017-05-28T01:41:19.252Z,0
2017-05-28T01:42:30.471Z,0
2017-05-28T01:43:41.492Z,0
2017-05-28T01:44:52.513Z,0
2017-05-28T01:46:03.517Z,0
2017-05-28T01:47:14.587Z,0
2017-05-28T01:48:25.611Z,0
2017-05-28T01:49:36.626Z,0
2017-05-28T01:50:47.640Z,0
2017-05-28T01:51:58.649Z,0
2017-05-28T01:53:09.709Z,0
2017-05-28T01:54:20.735Z,0
2017-05-28T01:55:31.743Z,0
2017-05-28T01:56:42.754Z,0
2017-05-28T01:57:53.754Z,0
2017-05-28T01:59:04.825Z,0
2017-05-28T02:00:15.832Z,0
2017-05-28T02:01:26.850Z,0
2017-05-28T02:02:37.854Z,0
2017-05-28T02:03:48.874Z,0
2017-05-28T02:04:59.942Z,0
2017-05-28T02:06:10.949Z,0
2017-05-28T02:07:22.168Z,0
2017-05-28T02:08:33.182Z,0
2017-05-28T02:09:44.422Z,0
2017-05-28T02:10:55.650Z,0
2017-05-28T02:12:06.868Z,0
2017-05-28T02:13:17.891Z,0
2017-05-28T02:14:29.105Z,0
2017-05-28T02:15:40.175Z,0
2017-05-28T02:16:51.196Z,0
2017-05-28T02:18:02.212Z,0
2017-05-28T02:19:13.219Z,0
2017-05-28T02:20:24.437Z,0
2017-05-28T02:21:35.913Z,0
2017-05-28T02:22:47.128Z,0
2017-05-28T02:23:58.364Z,0
2017-05-28T02:25:09.368Z,0
2017-05-28T02:26:20.379Z,0
2017-05-28T02:27:31.850Z,0
2017-05-28T02:28:42.873Z,0
2017-05-28T02:29:54.081Z,0
2017-05-28T02:31:05.102Z,0
2017-05-28T02:32:16.128Z,0
2017-05-28T02:33:27.201Z,0
2017-05-28T02:34:38.213Z,0
2017-05-28T02:35:49.224Z,0
2017-05-28T02:37:00.246Z,4
2017-05-28T02:38:11.245Z,4
2017-05-28T02:39:22.316Z,0
2017-05-28T02:40:33.529Z,4
2017-05-28T02:41:44.750Z,4
2017-05-28T02:42:55.980Z,0
2017-05-28T02:44:06.999Z,4
2017-05-28T02:45:18.056Z,4
2017-05-28T02:46:29.076Z,8
2017-05-28T02:47:40.083Z,4
2017-05-28T02:48:51.104Z,4
2017-05-28T02:50:02.125Z,8
2017-05-28T02:51:13.185Z,12
2017-05-28T02:52:24.193Z,12
2017-05-28T02:53:35.197Z,12
2017-05-28T02:54:46.424Z,16
2017-05-28T02:55:57.435Z,16
2017-05-28T02:57:08.498Z,16
2017-05-28T02:58:19.515Z,20
2017-05-28T02:59:30.526Z,24
2017-05-28T03:00:41.535Z,28
2017-05-28T03:01:52.552Z,32
2017-05-28T03:03:03.617Z,32
2017-05-28T03:04:14.625Z,40
2017-05-28T03:05:25.651Z,48
2017-05-28T03:06:36.864Z,52
2017-05-28T03:07:47.873Z,56
2017-05-28T03:08:58.948Z,64
2017-05-28T03:10:09.970Z,72
2017-05-28T03:11:20.972Z,80
2017-05-28T03:12:32.050Z,88
2017-05-28T03:13:43.060Z,96
2017-05-28T03:14:54.127Z,108
2017-05-28T03:16:05.150Z,116
2017-05-28T03:17:16.158Z,132
2017-05-28T03:18:27.174Z,140
2017-05-28T03:19:38.206Z,152
2017-05-28T03:20:49.231Z,168
2017-05-28T03:22:00.242Z,184
2017-05-28T03:23:11.260Z,200
2017-05-28T03:24:22.281Z,216
2017-05-28T03:25:33.328Z,236
2017-05-28T03:26:44.332Z,252
2017-05-28T03:27:55.355Z,272
2017-05-28T03:29:06.376Z,296
2017-05-28T03:30:17.596Z,316
2017-05-28T03:31:28.662Z,348
2017-05-28T03:32:39.882Z,376
2017-05-28T03:33:50.900Z,408
2017-05-28T03:35:02.117Z,444
2017-05-28T03:36:13.182Z,484
2017-05-28T03:37:24.247Z,524
2017-05-28T03:38:35.267Z,560
2017-05-28T03:39:46.283Z,604
2017-05-28T03:40:57.301Z,644
2017-05-28T03:42:08.308Z,696
2017-05-28T03:43:19.398Z,756
2017-05-28T03:44:30.440Z,820
2017-05-28T03:45:41.474Z,888
2017-05-28T03:46:52.702Z,956
2017-05-28T03:48:03.711Z,1020
2017-05-28T03:49:14.783Z,1060
2017-05-28T03:50:25.804Z,1092
2017-05-28T03:51:36.816Z,1116
2017-05-28T03:52:47.836Z,1128
2017-05-28T03:53:58.860Z,1136
2017-05-28T03:55:09.919Z,1160
2017-05-28T03:56:20.922Z,1200
2017-05-28T03:57:31.950Z,1220
2017-05-28T03:58:43.162Z,1220
2017-05-28T03:59:54.373Z,1232
2017-05-28T04:01:05.412Z,1240
2017-05-28T04:02:16.432Z,1280
2017-05-28T04:03:27.916Z,1336
2017-05-28T04:04:38.927Z,1404
2017-05-28T04:05:50.003Z,1476
2017-05-28T04:07:01.017Z,1532
2017-05-28T04:08:12.229Z,1580
2017-05-28T04:09:23.262Z,1616
2017-05-28T04:10:34.527Z,1652
2017-05-28T04:11:45.797Z,1684
2017-05-28T04:12:56.811Z,1704
2017-05-28T04:14:07.871Z,1724
2017-05-28T04:15:18.878Z,1760
2017-05-28T04:16:29.893Z,1804
2017-05-28T04:17:40.948Z,1832
2017-05-28T04:18:52.163Z,1868
2017-05-28T04:20:03.186Z,1900
2017-05-28T04:21:14.205Z,1928
2017-05-28T04:22:25.434Z,1968
2017-05-28T04:23:36.707Z,1968
2017-05-28T04:24:47.734Z,2192
2017-05-28T04:25:58.734Z,2216
2017-05-28T04:27:09.971Z,2120
2017-05-28T04:28:20.998Z,1808
2017-05-28T04:29:32.074Z,1648
2017-05-28T04:30:43.080Z,1696
2017-05-28T04:31:54.101Z,1620
2017-05-28T04:33:05.120Z,1496
2017-05-28T04:34:16.334Z,1432
2017-05-28T04:35:27.595Z,1468
2017-05-28T04:36:38.621Z,1504
2017-05-28T04:37:49.845Z,1452
2017-05-28T04:39:00.879Z,1436
2017-05-28T04:40:11.891Z,1412
2017-05-28T04:41:22.972Z,1388
2017-05-28T04:42:34.197Z,1400
2017-05-28T04:43:45.618Z,1412
2017-05-28T04:44:56.649Z,1444
2017-05-28T04:46:07.659Z,1468
2017-05-28T04:47:18.731Z,1456
2017-05-28T04:48:29.741Z,1428
2017-05-28T04:49:40.757Z,1392
2017-05-28T04:50:51.768Z,1364
2017-05-28T04:52:02.782Z,1372
2017-05-28T04:53:13.839Z,1416
2017-05-28T04:54:24.842Z,1480
2017-05-28T04:55:35.873Z,1540
2017-05-28T04:56:46.906Z,1580
2017-05-28T04:57:57.930Z,1612
2017-05-28T04:59:08.995Z,1628
2017-05-28T05:00:20.207Z,1644
2017-05-28T05:01:31.431Z,1656
2017-05-28T05:02:42.647Z,1656
2017-05-28T05:03:53.659Z,1652
2017-05-28T05:05:04.720Z,1648
2017-05-28T05:06:15.738Z,1660
2017-05-28T05:07:26.756Z,1664
2017-05-28T05:08:37.779Z,1672
2017-05-28T05:09:48.786Z,1676
2017-05-28T05:11:00.013Z,1672
2017-05-28T05:12:11.033Z,1656
2017-05-28T05:13:22.054Z,1604
2017-05-28T05:14:33.056Z,1484
2017-05-28T05:15:44.122Z,1320
2017-05-28T05:16:55.140Z,1184
2017-05-28T05:18:06.164Z,1120
2017-05-28T05:19:17.188Z,1112
2017-05-28T05:20:28.254Z,1156
2017-05-28T05:21:39.333Z,1220
2017-05-28T05:22:50.344Z,1288
2017-05-28T05:24:01.367Z,1344
2017-05-28T05:25:12.593Z,1384
2017-05-28T05:26:23.615Z,1400
2017-05-28T05:27:34.690Z,1388
2017-05-28T05:28:45.709Z,1352
2017-05-28T05:29:56.742Z,1300
2017-05-28T05:31:07.749Z,1264
2017-05-28T05:32:18.771Z,1304
2017-05-28T05:33:29.837Z,1408
2017-05-28T05:34:40.848Z,1560
2017-05-28T05:35:51.858Z,1680
2017-05-28T05:37:02.885Z,1780
2017-05-28T05:38:13.889Z,1860
2017-05-28T05:39:24.967Z,1916
2017-05-28T05:40:35.987Z,1960
2017-05-28T05:41:47.205Z,1988
2017-05-28T05:42:58.223Z,2020
2017-05-28T05:44:09.234Z,2052
2017-05-28T05:45:20.293Z,2088
2017-05-28T05:46:31.505Z,2124
2017-05-28T05:47:42.581Z,2132
2017-05-28T05:48:53.601Z,2116
2017-05-28T05:50:04.607Z,2056
2017-05-28T05:51:15.673Z,1960
2017-05-28T05:52:26.900Z,1844
2017-05-28T05:53:37.912Z,1736
2017-05-28T05:54:49.141Z,1644
2017-05-28T05:56:00.357Z,1572
2017-05-28T05:57:11.432Z,1480
2017-05-28T05:58:22.661Z,1360
2017-05-28T05:59:33.671Z,1332
2017-05-28T06:00:44.893Z,1392
2017-05-28T06:01:55.926Z,1488
2017-05-28T06:03:06.996Z,1588
2017-05-28T06:04:18.001Z,1636
2017-05-28T06:05:29.008Z,1648
2017-05-28T06:06:40.033Z,1668
2017-05-28T06:07:51.041Z,1756
2017-05-28T06:09:02.169Z,1976
2017-05-28T06:10:13.174Z,2296
2017-05-28T06:11:24.188Z,2648
2017-05-28T06:12:35.192Z,2868
2017-05-28T06:13:46.251Z,2852
2017-05-28T06:14:57.319Z,2584
2017-05-28T06:16:08.552Z,2180
2017-05-28T06:17:19.761Z,1820
2017-05-28T06:18:30.994Z,1728
2017-05-28T06:19:42.017Z,1844
2017-05-28T06:20:53.027Z,2088
2017-05-28T06:22:04.050Z,2412
2017-05-28T06:23:15.066Z,2688
2017-05-28T06:24:26.066Z,2764
2017-05-28T06:25:37.339Z,2884
2017-05-28T06:26:48.357Z,3584
2017-05-28T06:27:59.376Z,4180
2017-05-28T06:29:10.401Z,2588
2017-05-28T06:30:21.423Z,2276
2017-05-28T06:31:32.489Z,2028
2017-05-28T06:32:43.510Z,1748
2017-05-28T06:33:54.515Z,1404
2017-05-28T06:35:05.723Z,1060
2017-05-28T06:36:16.739Z,752
2017-05-28T06:37:28.005Z,532
2017-05-28T06:38:39.415Z,404
2017-05-28T06:39:50.629Z,344
2017-05-28T06:41:01.841Z,328
2017-05-28T06:42:13.056Z,332
2017-05-28T06:43:24.128Z,344
2017-05-28T06:44:35.149Z,348
2017-05-28T06:45:46.363Z,352
2017-05-28T06:46:57.370Z,364
2017-05-28T06:48:08.388Z,372
2017-05-28T06:49:19.467Z,384
2017-05-28T06:50:30.491Z,396
2017-05-28T06:51:41.705Z,412
2017-05-28T06:52:52.918Z,436
2017-05-28T06:54:04.134Z,468
2017-05-28T06:55:15.204Z,516
2017-05-28T06:56:26.422Z,584
2017-05-28T06:57:37.705Z,676
2017-05-28T06:58:48.710Z,796
2017-05-28T06:59:59.718Z,936
2017-05-28T07:01:10.775Z,1080
2017-05-28T07:02:21.795Z,1228
2017-05-28T07:03:32.831Z,1384
2017-05-28T07:04:43.840Z,1552
2017-05-28T07:05:54.846Z,1716
2017-05-28T07:07:06.306Z,1860
2017-05-28T07:08:17.537Z,2000
2017-05-28T07:09:28.553Z,2176
2017-05-28T07:10:39.564Z,2428
2017-05-28T07:11:50.592Z,2768
2017-05-28T07:13:01.653Z,3328
2017-05-28T07:14:12.866Z,4100
2017-05-28T07:15:24.287Z,5040
2017-05-28T07:16:35.297Z,6056
2017-05-28T07:17:46.312Z,6696
2017-05-28T07:18:57.372Z,8104
2017-05-28T07:20:08.371Z,7716
2017-05-28T07:21:19.383Z,7264
2017-05-28T07:22:30.397Z,7108
2017-05-28T07:23:41.415Z,7464
2017-05-28T07:24:52.496Z,7384
2017-05-28T07:26:03.519Z,7580
2017-05-28T07:27:14.532Z,8908
2017-05-28T07:28:25.539Z,8352
2017-05-28T07:29:36.555Z,8304
2017-05-28T07:30:47.562Z,7748
2017-05-28T07:31:58.589Z,7704
2017-05-28T07:33:09.596Z,8416
2017-05-28T07:34:20.620Z,9488
2017-05-28T07:35:31.699Z,11256
2017-05-28T07:36:42.912Z,17600
2017-05-28T07:37:53.936Z,33952
2017-05-28T07:39:05.159Z,20832
2017-05-28T07:40:16.171Z,39648
2017-05-28T07:41:27.244Z,60928
2017-05-28T07:42:38.269Z,33920
2017-05-28T07:43:49.280Z,35520
2017-05-28T07:45:00.303Z,33120
2017-05-28T07:46:11.305Z,54816
2017-05-28T07:47:22.376Z,58080
2017-05-28T07:48:33.395Z,61120
2017-05-28T07:49:44.427Z,57376
2017-05-28T07:50:55.442Z,52992
2017-05-28T07:52:06.671Z,51712
2017-05-28T07:53:17.955Z,54464
2017-05-28T07:54:28.975Z,55360
2017-05-28T07:55:40.207Z,57888
2017-05-28T07:56:51.246Z,59360
2017-05-28T07:58:02.275Z,58688
2017-05-28T07:59:13.355Z,55552
2017-05-28T08:00:24.394Z,54432
2017-05-28T08:01:35.423Z,57408
2017-05-28T08:02:46.453Z,52672
2017-05-28T08:03:57.680Z,57408
2017-05-28T08:05:08.955Z,58944
2017-05-28T08:06:19.988Z,58752
2017-05-28T08:07:31.017Z,57792
2017-05-28T08:08:42.040Z,57472
2017-05-28T08:09:53.088Z,59232
2017-05-28T08:11:04.166Z,60608
2017-05-28T08:12:15.203Z,57440
2017-05-28T08:13:26.449Z,44768
2017-05-28T08:14:37.686Z,52192
2017-05-28T08:15:48.768Z,58048
2017-05-28T08:16:59.996Z,56704
2017-05-28T08:18:11.033Z,56544
2017-05-28T08:19:22.067Z,54208
2017-05-28T08:20:33.089Z,54592
2017-05-28T08:21:44.170Z,53280
2017-05-28T08:22:55.202Z,50784
2017-05-28T08:24:06.239Z,50624
2017-05-28T08:25:17.290Z,53600
2017-05-28T08:26:28.322Z,55392
2017-05-28T08:27:39.607Z,56448
2017-05-28T08:28:50.671Z,56000
2017-05-28T08:30:01.725Z,55136
2017-05-28T08:31:12.762Z,54272
2017-05-28T08:32:23.801Z,52768
2017-05-28T08:33:34.884Z,53088
2017-05-28T08:34:46.116Z,51520
2017-05-28T08:35:57.146Z,49888
2017-05-28T08:37:08.172Z,50880
2017-05-28T08:38:19.211Z,51808
2017-05-28T08:39:30.312Z,53696
2017-05-28T08:40:41.540Z,55392
2017-05-28T08:41:52.572Z,55552
2017-05-28T08:43:03.609Z,56832
2017-05-28T08:44:14.847Z,32512
2017-05-28T08:45:26.127Z,29248
2017-05-28T08:46:37.235Z,49600
2017-05-28T08:47:48.270Z,49664
2017-05-28T08:48:59.306Z,48448
2017-05-28T08:50:10.341Z,50496
2017-05-28T08:51:21.826Z,51680
2017-05-28T08:52:33.058Z,18688
2017-05-28T08:53:44.100Z,50784
2017-05-28T08:54:55.137Z,56064
2017-05-28T08:56:06.174Z,53952
2017-05-28T08:57:17.260Z,55328
2017-05-28T08:58:28.307Z,52032
2017-05-28T08:59:39.750Z,49664
2017-05-28T09:00:50.981Z,38912
2017-05-28T09:02:02.202Z,42848
2017-05-28T09:03:13.485Z,47520
2017-05-28T09:04:24.508Z,45088
2017-05-28T09:05:35.540Z,24544
2017-05-28T09:06:46.578Z,18336
2017-05-28T09:07:57.813Z,18304
2017-05-28T09:09:09.083Z,18080
2017-05-28T09:10:20.313Z,18176
2017-05-28T09:11:31.347Z,18240
2017-05-28T09:12:42.398Z,49408
2017-05-28T09:13:53.433Z,48896
2017-05-28T09:15:04.513Z,46560
2017-05-28T09:16:15.744Z,44672
2017-05-28T09:17:26.766Z,41248
2017-05-28T09:18:37.794Z,41280
2017-05-28T09:19:48.830Z,43296
2017-05-28T09:20:59.867Z,47904
2017-05-28T09:22:10.888Z,46496
2017-05-28T09:23:22.120Z,45632
2017-05-28T09:24:33.154Z,45024
2017-05-28T09:25:44.235Z,36384
2017-05-28T09:26:55.266Z,46880
2017-05-28T09:28:06.302Z,46080
2017-05-28T09:29:17.328Z,45792
2017-05-28T09:30:28.360Z,44384
2017-05-28T09:31:39.649Z,41824
2017-05-28T09:32:50.692Z,37216
2017-05-28T09:34:01.729Z,37856
2017-05-28T09:35:12.754Z,38560
2017-05-28T09:36:23.783Z,41376
2017-05-28T09:37:34.860Z,38592
2017-05-28T09:38:45.890Z,37696
2017-05-28T09:39:57.124Z,33568
2017-05-28T09:41:08.157Z,15904
2017-05-28T09:42:19.190Z,15712
2017-05-28T09:43:30.265Z,17504
2017-05-28T09:44:41.303Z,17056
2017-05-28T09:45:52.340Z,18080
2017-05-28T09:47:03.375Z,20992
2017-05-28T09:48:14.407Z,24160
2017-05-28T09:49:25.479Z,23232
2017-05-28T09:50:36.718Z,41472
2017-05-28T09:51:47.752Z,25568
2017-05-28T09:52:58.795Z,23072
2017-05-28T09:54:09.821Z,12492
2017-05-28T09:55:20.900Z,9984
2017-05-28T09:56:32.332Z,10352
2017-05-28T09:57:43.357Z,10148
2017-05-28T09:58:54.599Z,10124
2017-05-28T10:00:05.621Z,10136
2017-05-28T10:01:16.905Z,10228
2017-05-28T10:02:27.945Z,9768
2017-05-28T10:03:39.165Z,9380
2017-05-28T10:04:50.395Z,9144
2017-05-28T10:06:01.419Z,8964
2017-05-28T10:07:12.495Z,8840
2017-05-28T10:08:23.911Z,8568
2017-05-28T10:09:34.939Z,8340
2017-05-28T10:10:45.958Z,8344
2017-05-28T10:11:56.973Z,8884
2017-05-28T10:13:08.064Z,9244
2017-05-28T10:14:19.162Z,8916
2017-05-28T10:15:30.179Z,8160
2017-05-28T10:16:41.194Z,7868
2017-05-28T10:17:52.237Z,7900
2017-05-28T10:19:03.720Z,8540
2017-05-28T10:20:14.740Z,11040
2017-05-28T10:21:25.759Z,17152
2017-05-28T10:22:36.777Z,15104
2017-05-28T10:23:47.800Z,14140
2017-05-28T10:24:58.860Z,15392
2017-05-28T10:26:09.886Z,16128
2017-05-28T10:27:20.914Z,17184
2017-05-28T10:28:31.942Z,18880
2017-05-28T10:29:42.966Z,23264
2017-05-28T10:30:53.991Z,29152
2017-05-28T10:32:05.013Z,31040
2017-05-28T10:33:16.037Z,34624
2017-05-28T10:34:27.069Z,22624
2017-05-28T10:35:38.160Z,21280
2017-05-28T10:36:49.179Z,18112
2017-05-28T10:38:00.416Z,18592
2017-05-28T10:39:11.433Z,20352
2017-05-28T10:40:22.462Z,18464
2017-05-28T10:41:33.548Z,15744
2017-05-28T10:42:44.585Z,16192
2017-05-28T10:43:55.612Z,15200
2017-05-28T10:45:06.828Z,13748
2017-05-28T10:46:18.065Z,12844
2017-05-28T10:47:29.090Z,12172
2017-05-28T10:48:40.320Z,11612
2017-05-28T10:49:51.342Z,11016
2017-05-28T10:51:02.357Z,10628
2017-05-28T10:52:13.440Z,10404
2017-05-28T10:53:24.463Z,10336
2017-05-28T10:54:35.494Z,10436
2017-05-28T10:55:46.580Z,10640
2017-05-28T10:56:57.603Z,11052
2017-05-28T10:58:08.680Z,11372
2017-05-28T10:59:19.704Z,12348
2017-05-28T11:00:30.929Z,19872
2017-05-28T11:01:41.951Z,23936
2017-05-28T11:02:52.992Z,16608
2017-05-28T11:04:04.013Z,16288
2017-05-28T11:05:15.047Z,17728
2017-05-28T11:06:26.076Z,15072
2017-05-28T11:07:37.099Z,14208
2017-05-28T11:08:48.384Z,13760
2017-05-28T11:09:59.418Z,13576
2017-05-28T11:11:10.647Z,13392
2017-05-28T11:12:21.674Z,13364
2017-05-28T11:13:32.905Z,13604
2017-05-28T11:14:43.935Z,13920
2017-05-28T11:15:54.972Z,14436
2017-05-28T11:17:06.010Z,14044
2017-05-28T11:18:17.032Z,14056
2017-05-28T11:19:28.129Z,14032
2017-05-28T11:20:39.148Z,13692
2017-05-28T11:21:50.380Z,13004
2017-05-28T11:23:01.402Z,12352
2017-05-28T11:24:12.444Z,11940
2017-05-28T11:25:23.717Z,11740
2017-05-28T11:26:34.937Z,11948
2017-05-28T11:27:45.961Z,12868
2017-05-28T11:28:56.982Z,13700
2017-05-28T11:30:08.010Z,13440
2017-05-28T11:31:19.094Z,15840
2017-05-28T11:32:30.319Z,20640
2017-05-28T11:33:41.333Z,20416
2017-05-28T11:34:52.381Z,24960
2017-05-28T11:36:03.598Z,24704
2017-05-28T11:37:14.877Z,22272
2017-05-28T11:38:25.906Z,21888
2017-05-28T11:39:36.942Z,17984
2017-05-28T11:40:47.988Z,19136
2017-05-28T11:41:59.015Z,17056
2017-05-28T11:43:10.102Z,17632
2017-05-28T11:44:21.138Z,16576
2017-05-28T11:45:32.164Z,15072
2017-05-28T11:46:43.394Z,17472
2017-05-28T11:47:54.621Z,15680
2017-05-28T11:49:05.702Z,15968
2017-05-28T11:50:16.739Z,18816
2017-05-28T11:51:27.778Z,16832
2017-05-28T11:52:38.800Z,22048
2017-05-28T11:53:49.852Z,17888
2017-05-28T11:55:00.930Z,16576
2017-05-28T11:56:12.003Z,14976
2017-05-28T11:57:23.023Z,14912
2017-05-28T11:58:34.043Z,16672
2017-05-28T11:59:45.073Z,14272
2017-05-28T12:00:56.102Z,14752
2017-05-28T12:02:07.133Z,15872
2017-05-28T12:03:18.171Z,17760
2017-05-28T12:04:29.390Z,16032
2017-05-28T12:05:40.675Z,17248
2017-05-28T12:06:51.705Z,15488
2017-05-28T12:08:02.734Z,16992
2017-05-28T12:09:13.776Z,16800
2017-05-28T12:10:24.814Z,16416
2017-05-28T12:11:36.093Z,16160
2017-05-28T12:12:47.323Z,15808
2017-05-28T12:13:58.559Z,15488
2017-05-28T12:15:09.595Z,15040
2017-05-28T12:16:20.633Z,14656
2017-05-28T12:17:31.709Z,14464
2017-05-28T12:18:42.747Z,14048
2017-05-28T12:19:53.968Z,13600
2017-05-28T12:21:05.007Z,13184
2017-05-28T12:22:16.248Z,12992
2017-05-28T12:23:27.331Z,12552
2017-05-28T12:24:38.571Z,12536
2017-05-28T12:25:49.596Z,12240
2017-05-28T12:27:00.631Z,11692
2017-05-28T12:28:11.655Z,11488
2017-05-28T12:29:22.750Z,11180
2017-05-28T12:30:33.786Z,10812
2017-05-28T12:31:44.841Z,10684
2017-05-28T12:32:55.895Z,10464
2017-05-28T12:34:06.924Z,10516
2017-05-28T12:35:17.945Z,10456
2017-05-28T12:36:28.971Z,10356
2017-05-28T12:37:39.993Z,10260
2017-05-28T12:38:51.024Z,10100
2017-05-28T12:40:02.048Z,10004
2017-05-28T12:41:13.129Z,9712
2017-05-28T12:42:24.157Z,9564
2017-05-28T12:43:35.203Z,9388
2017-05-28T12:44:46.246Z,9300
2017-05-28T12:45:57.265Z,9148
2017-05-28T12:47:08.342Z,9180
2017-05-28T12:48:19.364Z,9160
2017-05-28T12:49:30.392Z,9192
2017-05-28T12:50:41.448Z,9116
2017-05-28T12:51:52.491Z,8900
2017-05-28T12:53:03.574Z,8784
2017-05-28T12:54:14.602Z,8744
2017-05-28T12:55:25.633Z,8736
2017-05-28T12:56:36.655Z,8700
2017-05-28T12:57:47.686Z,8624
2017-05-28T12:58:58.793Z,8572
2017-05-28T13:00:09.816Z,8692
2017-05-28T13:01:20.855Z,8572
2017-05-28T13:02:31.876Z,8544
2017-05-28T13:03:42.909Z,8444
2017-05-28T13:04:53.982Z,8468
2017-05-28T13:06:05.210Z,8392
2017-05-28T13:07:16.237Z,8596
2017-05-28T13:08:27.467Z,8636
2017-05-28T13:09:38.494Z,8480
2017-05-28T13:10:49.920Z,8280
2017-05-28T13:12:00.954Z,8512
2017-05-28T13:13:11.983Z,8568
2017-05-28T13:14:23.415Z,8196
2017-05-28T13:15:34.485Z,8844
2017-05-28T13:16:45.914Z,8780
2017-05-28T13:17:56.949Z,8532
2017-05-28T13:19:07.977Z,8752
2017-05-28T13:20:18.994Z,8316
2017-05-28T13:21:30.076Z,8144
2017-05-28T13:22:41.099Z,8056
2017-05-28T13:23:52.140Z,8100
2017-05-28T13:25:03.377Z,8228
2017-05-28T13:26:14.401Z,8384
2017-05-28T13:27:25.686Z,8448
2017-05-28T13:28:36.714Z,8284
2017-05-28T13:29:47.740Z,7888
2017-05-28T13:30:58.776Z,7808
2017-05-28T13:32:09.820Z,7904
2017-05-28T13:33:21.300Z,7876
2017-05-28T13:34:32.535Z,7804
2017-05-28T13:35:43.751Z,7628
2017-05-28T13:36:54.786Z,7652
2017-05-28T13:38:05.846Z,7912
2017-05-28T13:39:16.920Z,8144
2017-05-28T13:40:28.152Z,8336
2017-05-28T13:41:39.177Z,8216
2017-05-28T13:42:50.200Z,7528
2017-05-28T13:44:01.234Z,7476
2017-05-28T13:45:12.306Z,7420
2017-05-28T13:46:23.337Z,7152
2017-05-28T13:47:34.363Z,7176
2017-05-28T13:48:45.393Z,6932
2017-05-28T13:49:56.411Z,6940
2017-05-28T13:51:07.431Z,7032
2017-05-28T13:52:18.666Z,7300
2017-05-28T13:53:29.886Z,7540
2017-05-28T13:54:40.920Z,7500
2017-05-28T13:55:52.143Z,7752
2017-05-28T13:57:03.217Z,8392
2017-05-28T13:58:14.247Z,9508
2017-05-28T13:59:25.273Z,9488
2017-05-28T14:00:36.294Z,9472
2017-05-28T14:01:47.319Z,9480
2017-05-28T14:02:58.414Z,9336
2017-05-28T14:04:09.446Z,9336
2017-05-28T14:05:20.485Z,9440
2017-05-28T14:06:31.905Z,9496
2017-05-28T14:07:42.940Z,9104
2017-05-28T14:08:54.025Z,9480
2017-05-28T14:10:05.261Z,8740
2017-05-28T14:11:16.686Z,9044
2017-05-28T14:12:27.715Z,8704
2017-05-28T14:13:39.156Z,8944
2017-05-28T14:14:50.445Z,9104
2017-05-28T14:16:01.682Z,9008
2017-05-28T14:17:12.906Z,9608
2017-05-28T14:18:23.932Z,9304
2017-05-28T14:19:34.966Z,8212
2017-05-28T14:20:45.986Z,7788
2017-05-28T14:21:57.016Z,8496
2017-05-28T14:23:08.049Z,7904
2017-05-28T14:24:19.290Z,7884
2017-05-28T14:25:30.367Z,8328
2017-05-28T14:26:41.402Z,8336
2017-05-28T14:27:52.413Z,8596
2017-05-28T14:29:03.441Z,8212
2017-05-28T14:30:14.468Z,7700
2017-05-28T14:31:25.547Z,6968
2017-05-28T14:32:36.766Z,6736
2017-05-28T14:33:47.796Z,6668
2017-05-28T14:34:59.018Z,6788
2017-05-28T14:36:10.037Z,6944
2017-05-28T14:37:21.305Z,6980
2017-05-28T14:38:32.341Z,7032
2017-05-28T14:39:43.367Z,7060
2017-05-28T14:40:54.617Z,6968
2017-05-28T14:42:05.631Z,6984
2017-05-28T14:43:16.905Z,7112
2017-05-28T14:44:27.936Z,7192
2017-05-28T14:45:39.172Z,7020
2017-05-28T14:46:50.402Z,6900
2017-05-28T14:48:01.440Z,6976
2017-05-28T14:49:12.521Z,6996
2017-05-28T14:50:23.538Z,7104
2017-05-28T14:51:34.760Z,6992
2017-05-28T14:52:45.787Z,6844
2017-05-28T14:53:56.828Z,6696
2017-05-28T14:55:07.895Z,6576
2017-05-28T14:56:19.313Z,6472
2017-05-28T14:57:30.412Z,6344
2017-05-28T14:58:41.436Z,6264
2017-05-28T14:59:52.663Z,6228
2017-05-28T15:01:03.910Z,6228
2017-05-28T15:02:14.939Z,6200
2017-05-28T15:03:26.167Z,6320
2017-05-28T15:04:37.389Z,6424
2017-05-28T15:05:48.475Z,6404
2017-05-28T15:06:59.501Z,6356
2017-05-28T15:08:10.531Z,6380
2017-05-28T15:09:21.761Z,6364
2017-05-28T15:10:32.801Z,6312
2017-05-28T15:11:43.865Z,6124
2017-05-28T15:12:54.884Z,6060
2017-05-28T15:14:05.905Z,6032
2017-05-28T15:15:16.923Z,5968
2017-05-28T15:16:27.960Z,6064
2017-05-28T15:17:39.039Z,6020
2017-05-28T15:18:50.059Z,5892
2017-05-28T15:20:01.096Z,5912
2017-05-28T15:21:12.120Z,5984
2017-05-28T15:22:23.131Z,6076
2017-05-28T15:23:34.406Z,6168
2017-05-28T15:24:45.843Z,6332
2017-05-28T15:25:56.864Z,6452
2017-05-28T15:27:07.896Z,6624
2017-05-28T15:28:19.116Z,6536
2017-05-28T15:29:30.205Z,6640
2017-05-28T15:30:41.217Z,6880
2017-05-28T15:31:52.238Z,6892
2017-05-28T15:33:03.264Z,6884
2017-05-28T15:34:14.289Z,6788
2017-05-28T15:35:25.370Z,6652
2017-05-28T15:36:36.397Z,6516
2017-05-28T15:37:47.827Z,6416
2017-05-28T15:38:58.853Z,6288
2017-05-28T15:40:09.885Z,6268
2017-05-28T15:41:20.964Z,6156
2017-05-28T15:42:31.979Z,6084
2017-05-28T15:43:43.613Z,5940
2017-05-28T15:44:54.840Z,5820
2017-05-28T15:46:05.867Z,5740
2017-05-28T15:47:17.139Z,5612
2017-05-28T15:48:28.160Z,5528
2017-05-28T15:49:39.200Z,5448
2017-05-28T15:50:50.241Z,5400
2017-05-28T15:52:01.265Z,5376
2017-05-28T15:53:12.554Z,5396
2017-05-28T15:54:23.577Z,5404
2017-05-28T15:55:34.601Z,5444
2017-05-28T15:56:45.626Z,5356